createdAt,value
2017-11-01T00:00:15.354Z,8.19
2017-11-01T00:02:43.209Z,8.17
2017-11-01T00:05:10.889Z,8.04
2017-11-01T00:07:39.682Z,7.95
2017-11-01T00:10:07.304Z,8.00
2017-11-01T00:12:35.330Z,8.16
2017-11-01T00:15:03.260Z,8.24
2017-11-01T00:17:30.915Z,8.19
2017-11-01T00:20:01.051Z,8.00
2017-11-01T00:22:28.830Z,7.86
2017-11-01T00:24:56.549Z,7.94
2017-11-01T00:27:25.401Z,8.17
2017-11-01T00:29:54.219Z,7.93
2017-11-01T00:32:22.081Z,8.02
2017-11-01T00:34:50.633Z,8.13
2017-11-01T00:37:19.774Z,8.22
2017-11-01T00:39:47.428Z,8.25
2017-11-01T00:42:15.132Z,8.13
2017-11-01T00:44:43.796Z,8.23
2017-11-01T00:47:11.499Z,8.20
2017-11-01T00:49:39.473Z,8.16
2017-11-01T00:52:07.274Z,8.08
2017-11-01T00:54:34.930Z,8.27
2017-11-01T00:57:02.887Z,8.42
2017-11-01T00:59:33.844Z,8.61
2017-11-01T01:02:01.820Z,8.71
2017-11-01T01:04:29.879Z,8.64
2017-11-01T01:09:47.653Z,8.33
2017-11-01T01:12:16.209Z,8.30
2017-11-01T01:14:44.027Z,8.24
2017-11-01T01:17:11.784Z,8.30
2017-11-01T01:19:39.752Z,8.25
2017-11-01T01:22:18.317Z,8.29
2017-11-01T01:24:48.494Z,8.22
2017-11-01T01:27:16.237Z,8.22
2017-11-01T01:29:44.729Z,8.41
2017-11-01T01:32:12.427Z,8.09
2017-11-01T01:34:42.605Z,7.93
2017-11-01T01:37:10.362Z,7.76
2017-11-01T01:39:38.158Z,7.88
2017-11-01T01:42:06.076Z,7.99
2017-11-01T01:44:34.817Z,8.00
2017-11-01T01:47:02.570Z,7.93
2017-11-01T01:49:30.238Z,7.94
2017-11-01T01:55:11.141Z,7.85
2017-11-01T01:57:46.718Z,8.05
2017-11-01T02:00:34.214Z,8.10
2017-11-01T02:03:02.236Z,8.17
2017-11-01T02:05:29.849Z,8.13
2017-11-01T02:07:58.224Z,8.17
2017-11-01T02:12:59.838Z,8.13
2017-11-01T02:18:01.285Z,8.29
2017-11-01T02:20:29.395Z,8.37
2017-11-01T02:22:57.647Z,8.50
2017-11-01T02:25:25.349Z,8.39
2017-11-01T02:27:52.940Z,8.26
2017-11-01T02:30:20.797Z,8.47
2017-11-01T02:32:48.626Z,8.64
2017-11-01T02:35:16.394Z,8.56
2017-11-01T02:37:53.371Z,8.65
2017-11-01T02:40:21.427Z,8.60
2017-11-01T02:42:49.244Z,8.65
2017-11-01T02:45:17.261Z,8.60
2017-11-01T02:47:45.162Z,8.65
2017-11-01T02:50:12.895Z,8.47
2017-11-01T02:52:40.732Z,8.62
2017-11-01T02:55:08.529Z,8.73
2017-11-01T02:57:36.266Z,8.50
2017-11-01T03:00:04.024Z,8.30
2017-11-01T03:02:34.040Z,8.61
2017-11-01T03:05:01.736Z,8.73
2017-11-01T03:07:29.353Z,8.78
2017-11-01T03:09:56.992Z,8.82
2017-11-01T03:12:25.208Z,8.76
2017-11-01T03:14:52.905Z,8.54
2017-11-01T03:17:20.832Z,8.48
2017-11-01T03:19:49.466Z,8.50
2017-11-01T03:22:17.138Z,8.51
2017-11-01T03:24:45.874Z,8.53
2017-11-01T03:27:13.693Z,8.51
2017-11-01T03:29:41.569Z,8.43
2017-11-01T03:32:09.425Z,8.54
2017-11-01T03:34:37.121Z,8.46
2017-11-01T03:37:04.967Z,8.62
2017-11-01T03:39:32.677Z,8.54
2017-11-01T03:42:00.495Z,8.62
2017-11-01T03:44:28.351Z,8.69
2017-11-01T03:46:55.968Z,8.40
2017-11-01T03:49:26.171Z,7.96
2017-11-01T03:51:54.663Z,8.01
2017-11-01T03:54:23.799Z,7.97
2017-11-01T03:56:51.475Z,7.81
2017-11-01T03:59:19.193Z,7.86
2017-11-01T04:01:46.931Z,7.93
2017-11-01T04:04:14.667Z,7.97
2017-11-01T04:06:42.486Z,8.06
2017-11-01T04:09:10.167Z,8.05
2017-11-01T04:11:37.759Z,8.11
2017-11-01T04:14:05.495Z,8.25
2017-11-01T04:16:33.213Z,7.96
2017-11-01T04:19:06.332Z,7.84
2017-11-01T04:21:35.371Z,7.86
2017-11-01T04:24:04.150Z,7.85
2017-11-01T04:26:31.788Z,7.65
2017-11-01T04:29:00.199Z,7.69
2017-11-01T04:31:27.940Z,7.67
2017-11-01T04:33:56.452Z,7.39
2017-11-01T04:36:25.155Z,7.49
2017-11-01T04:38:52.880Z,7.71
2017-11-01T04:41:20.624Z,7.74
2017-11-01T04:43:48.571Z,7.65
2017-11-01T04:46:16.505Z,7.53
2017-11-01T04:48:44.376Z,7.64
2017-11-01T04:51:15.976Z,7.90
2017-11-01T04:53:43.829Z,7.70
2017-11-01T04:56:11.727Z,7.73
2017-11-01T04:58:39.984Z,7.74
2017-11-01T05:01:07.801Z,7.88
2017-11-01T05:03:35.479Z,8.00
2017-11-01T05:06:04.303Z,7.91
2017-11-01T05:08:37.612Z,8.02
2017-11-01T05:11:09.463Z,7.93
2017-11-01T05:13:43.767Z,7.92
2017-11-01T05:16:12.966Z,7.83
2017-11-01T05:18:41.422Z,7.82
2017-11-01T05:21:09.278Z,8.09
2017-11-01T05:23:38.075Z,8.13
2017-11-01T05:26:07.913Z,8.13
2017-11-01T05:28:35.670Z,8.16
2017-11-01T05:31:03.806Z,8.26
2017-11-01T05:33:31.589Z,7.85
2017-11-01T05:35:59.483Z,7.92
2017-11-01T05:38:27.177Z,7.91
2017-11-01T05:40:55.975Z,7.94
2017-11-01T05:43:23.844Z,7.97
2017-11-01T05:45:51.699Z,8.04
2017-11-01T05:48:19.586Z,8.16
2017-11-01T05:50:47.404Z,8.07
2017-11-01T05:53:15.534Z,8.23
2017-11-01T05:55:48.818Z,8.27
2017-11-01T05:58:16.694Z,8.28
2017-11-01T06:00:45.593Z,8.23
2017-11-01T06:03:13.390Z,8.37
2017-11-01T06:05:41.024Z,8.20
2017-11-01T06:16:42.452Z,8.16
2017-11-01T06:19:11.949Z,8.31
2017-11-01T06:21:39.808Z,8.29
2017-11-01T06:24:07.463Z,8.45
2017-11-01T06:26:35.460Z,8.54
2017-11-01T06:29:05.880Z,8.55
2017-11-01T06:31:33.496Z,8.52
2017-11-01T06:34:01.353Z,8.42
2017-11-01T06:36:29.071Z,8.32
2017-11-01T06:38:56.913Z,8.48
2017-11-01T06:41:24.687Z,8.55
2017-11-01T06:43:53.323Z,8.53
2017-11-01T06:46:20.942Z,8.57
2017-11-01T06:48:48.728Z,8.38
2017-11-01T06:51:16.455Z,8.33
2017-11-01T06:53:44.223Z,8.36
2017-11-01T06:56:12.635Z,8.44
2017-11-01T06:58:40.449Z,8.43
2017-11-01T07:01:08.235Z,8.60
2017-11-01T07:03:36.004Z,8.55
2017-11-01T07:06:04.842Z,8.60
2017-11-01T07:08:33.061Z,8.65
2017-11-01T07:11:00.838Z,8.55
2017-11-01T07:13:28.545Z,8.40
2017-11-01T07:15:56.202Z,8.52
2017-11-01T07:18:24.709Z,8.47
2017-11-01T07:20:52.428Z,8.53
2017-11-01T07:23:20.116Z,8.54
2017-11-01T07:25:48.780Z,8.42
2017-11-01T07:28:16.597Z,8.25
2017-11-01T07:30:55.260Z,8.06
2017-11-01T07:33:22.954Z,8.37
2017-11-01T07:35:50.653Z,8.33
2017-11-01T07:38:18.528Z,8.06
2017-11-01T07:40:46.265Z,7.89
2017-11-01T07:43:14.344Z,8.26
2017-11-01T07:45:41.888Z,8.44
2017-11-01T07:48:09.390Z,8.36
2017-11-01T07:50:36.993Z,8.62
2017-11-01T07:53:04.595Z,8.72
2017-11-01T07:55:32.111Z,8.87
2017-11-01T07:57:59.810Z,8.78
2017-11-01T08:00:27.395Z,8.95
2017-11-01T08:02:54.903Z,8.91
2017-11-01T08:05:22.536Z,9.03
2017-11-01T08:07:50.177Z,9.05
2017-11-01T08:10:17.777Z,9.11
2017-11-01T08:12:45.318Z,9.03
2017-11-01T08:15:12.927Z,8.85
2017-11-01T08:17:40.667Z,8.97
2017-11-01T08:20:08.328Z,8.92
2017-11-01T08:22:35.926Z,8.86
2017-11-01T08:25:03.521Z,8.95
2017-11-01T08:27:31.120Z,8.93
2017-11-01T08:29:58.735Z,9.13
2017-11-01T08:32:26.299Z,9.26
2017-11-01T08:34:53.915Z,9.40
2017-11-01T08:37:21.528Z,9.44
2017-11-01T08:39:49.122Z,9.69
2017-11-01T08:42:16.722Z,9.64
2017-11-01T08:44:44.319Z,9.63
2017-11-01T08:47:12.062Z,9.32
2017-11-01T08:49:39.918Z,9.54
2017-11-01T08:52:07.569Z,9.67
2017-11-01T08:54:35.265Z,9.28
2017-11-01T08:57:02.938Z,9.62
2017-11-01T08:59:30.523Z,9.70
2017-11-01T09:01:58.544Z,10.10
2017-11-01T09:04:27.156Z,10.36
2017-11-01T09:06:55.110Z,10.60
2017-11-01T09:09:22.722Z,10.85
2017-11-01T09:11:50.342Z,10.90
2017-11-01T09:14:18.106Z,11.14
2017-11-01T09:16:46.020Z,11.18
2017-11-01T09:19:14.279Z,11.52
2017-11-01T09:21:41.876Z,11.64
2017-11-01T09:24:09.458Z,11.64
2017-11-01T09:26:37.137Z,11.70
2017-11-01T09:29:04.746Z,11.91
2017-11-01T09:31:32.364Z,11.81
2017-11-01T09:33:59.938Z,12.17
2017-11-01T09:36:27.502Z,12.51
2017-11-01T09:38:55.091Z,12.60
2017-11-01T09:41:22.911Z,12.69
2017-11-01T09:43:54.133Z,12.72
2017-11-01T09:46:22.203Z,12.64
2017-11-01T09:48:50.845Z,12.50
2017-11-01T09:51:21.693Z,12.53
2017-11-01T09:53:51.548Z,12.37
2017-11-01T09:56:20.010Z,11.92
2017-11-01T09:58:47.998Z,12.12
2017-11-01T10:01:23.310Z,12.21
2017-11-01T10:03:51.006Z,12.29
2017-11-01T10:06:28.621Z,12.43
2017-11-01T10:08:56.217Z,12.50
2017-11-01T10:11:23.817Z,12.64
2017-11-01T10:13:52.558Z,12.71
2017-11-01T10:16:20.147Z,12.67
2017-11-01T10:18:48.349Z,12.53
2017-11-01T10:21:16.046Z,12.56
2017-11-01T10:23:43.867Z,12.62
2017-11-01T10:26:11.534Z,12.73
2017-11-01T10:28:39.856Z,12.69
2017-11-01T10:31:07.912Z,12.86
2017-11-01T10:33:35.952Z,12.86
2017-11-01T10:36:03.746Z,12.97
2017-11-01T10:38:34.215Z,13.14
2017-11-01T10:41:01.863Z,12.96
2017-11-01T10:43:29.508Z,13.09
2017-11-01T10:45:57.037Z,12.99
2017-11-01T10:48:24.650Z,12.98
2017-11-01T10:50:52.204Z,13.03
2017-11-01T10:53:19.805Z,13.04
2017-11-01T10:55:47.463Z,13.13
2017-11-01T10:58:16.088Z,13.17
2017-11-01T11:00:43.782Z,12.94
2017-11-01T11:03:11.953Z,12.88
2017-11-01T11:05:39.542Z,13.04
2017-11-01T11:08:07.087Z,12.96
2017-11-01T11:10:34.647Z,13.11
2017-11-01T11:13:02.201Z,12.91
2017-11-01T11:15:30.520Z,13.08
2017-11-01T11:17:58.807Z,13.40
2017-11-01T11:20:26.390Z,13.57
2017-11-01T11:22:53.946Z,13.50
2017-11-01T11:25:23.612Z,13.86
2017-11-01T11:27:51.244Z,13.83
2017-11-01T11:30:18.815Z,13.57
2017-11-01T11:32:46.401Z,13.54
2017-11-01T11:35:14.082Z,13.77
2017-11-01T11:37:41.709Z,14.18
2017-11-01T11:40:09.367Z,13.67
2017-11-01T11:42:37.011Z,14.69
2017-11-01T11:45:04.624Z,14.86
2017-11-01T11:47:32.246Z,15.24
2017-11-01T11:49:59.914Z,15.36
2017-11-01T11:52:27.848Z,15.06
2017-11-01T11:54:55.684Z,15.50
2017-11-01T11:57:23.334Z,15.66
2017-11-01T11:59:51.284Z,16.23
2017-11-01T12:02:19.136Z,16.57
2017-11-01T12:04:46.862Z,16.51
2017-11-01T12:07:14.927Z,15.78
2017-11-01T12:09:43.980Z,15.68
2017-11-01T12:12:13.597Z,15.69
2017-11-01T12:14:42.777Z,15.64
2017-11-01T12:17:13.571Z,15.38
2017-11-01T12:19:43.594Z,15.67
2017-11-01T12:22:13.008Z,16.22
2017-11-01T12:24:41.485Z,16.65
2017-11-01T12:27:09.516Z,16.96
2017-11-01T12:29:37.243Z,18.12
2017-11-01T12:32:04.880Z,19.05
2017-11-01T12:34:32.745Z,19.54
2017-11-01T12:37:00.714Z,19.71
2017-11-01T12:39:29.423Z,19.99
2017-11-01T12:41:57.521Z,19.99
2017-11-01T12:44:25.235Z,19.40
2017-11-01T12:46:54.429Z,19.77
2017-11-01T12:49:22.647Z,19.81
2017-11-01T12:51:51.499Z,19.64
2017-11-01T12:54:19.916Z,19.25
2017-11-01T12:56:48.944Z,19.58
2017-11-01T12:59:18.079Z,20.32
2017-11-01T13:01:46.630Z,20.62
2017-11-01T13:04:16.011Z,20.84
2017-11-01T13:06:45.468Z,20.10
2017-11-01T13:09:15.417Z,20.38
2017-11-01T13:11:45.351Z,20.52
2017-11-01T13:14:15.272Z,20.90
2017-11-01T13:16:42.930Z,20.85
2017-11-01T13:19:11.183Z,21.29
2017-11-01T13:21:39.182Z,21.12
2017-11-01T13:24:07.080Z,20.84
2017-11-01T13:26:36.025Z,20.21
2017-11-01T13:29:04.702Z,20.30
2017-11-01T13:31:32.750Z,19.16
2017-11-01T13:34:02.293Z,18.80
2017-11-01T13:36:30.130Z,19.05
2017-11-01T13:38:58.892Z,18.56
2017-11-01T13:41:28.270Z,17.86
2017-11-01T13:43:56.177Z,18.30
2017-11-01T13:46:24.248Z,18.30
2017-11-01T13:48:53.209Z,17.97
2017-11-01T13:51:21.846Z,17.79
2017-11-01T13:53:50.032Z,17.51
2017-11-01T13:56:17.805Z,17.57
2017-11-01T13:58:45.402Z,17.45
2017-11-01T14:01:12.996Z,17.37
2017-11-01T14:03:40.569Z,17.26
2017-11-01T14:06:09.170Z,17.48
2017-11-01T14:08:36.749Z,17.48
2017-11-01T14:11:04.305Z,16.94
2017-11-01T14:13:31.862Z,17.17
2017-11-01T14:15:59.471Z,17.31
2017-11-01T14:18:27.276Z,17.31
2017-11-01T14:20:55.219Z,17.12
2017-11-01T14:23:23.571Z,16.99
2017-11-01T14:25:51.107Z,16.93
2017-11-01T14:28:18.745Z,17.02
2017-11-01T14:30:46.358Z,16.96
2017-11-01T14:33:14.098Z,16.74
2017-11-01T14:35:42.339Z,16.79
2017-11-01T14:38:09.900Z,16.74
2017-11-01T14:40:37.550Z,16.66
2017-11-01T14:43:05.088Z,16.58
2017-11-01T14:45:32.888Z,16.48
2017-11-01T14:48:01.439Z,16.42
2017-11-01T14:50:28.984Z,16.42
2017-11-01T14:52:56.559Z,16.39
2017-11-01T14:55:24.137Z,16.40
2017-11-01T14:57:51.817Z,16.38
2017-11-01T15:00:19.369Z,16.29
2017-11-01T15:02:46.949Z,16.22
2017-11-01T15:05:14.547Z,16.16
2017-11-01T15:07:42.110Z,16.17
2017-11-01T15:10:09.694Z,16.12
2017-11-01T15:12:37.272Z,16.01
2017-11-01T15:15:04.910Z,15.95
2017-11-01T15:17:32.489Z,15.87
2017-11-01T15:20:00.073Z,15.73
2017-11-01T15:22:27.904Z,15.78
2017-11-01T15:24:55.521Z,15.77
2017-11-01T15:27:23.841Z,15.77
2017-11-01T15:29:51.400Z,15.73
2017-11-01T15:32:18.971Z,15.67
2017-11-01T15:34:46.568Z,15.58
2017-11-01T15:37:14.124Z,15.48
2017-11-01T15:39:42.140Z,15.30
2017-11-01T15:42:09.814Z,15.23
2017-11-01T15:44:37.811Z,15.24
2017-11-01T15:47:05.444Z,15.12
2017-11-01T15:49:33.079Z,15.10
2017-11-01T15:52:01.196Z,15.05
2017-11-01T15:54:29.207Z,15.04
2017-11-01T15:56:58.021Z,14.89
2017-11-01T15:59:25.967Z,14.73
2017-11-01T16:01:53.574Z,14.77
2017-11-01T16:04:21.340Z,14.63
2017-11-01T16:06:58.986Z,14.36
2017-11-01T16:09:43.065Z,14.35
2017-11-01T16:34:49.694Z,13.68
2017-11-01T16:40:27.369Z,13.58
2017-11-01T16:42:55.080Z,13.52
2017-11-01T16:45:22.892Z,13.49
2017-11-01T16:47:50.864Z,13.47
2017-11-01T16:50:33.336Z,13.23
2017-11-01T16:56:03.685Z,13.05
2017-11-01T17:18:34.940Z,12.33
2017-11-01T17:21:03.407Z,12.24
2017-11-01T17:26:26.557Z,12.12
2017-11-01T17:49:03.804Z,11.74
2017-11-01T17:51:31.497Z,11.70
2017-11-01T17:53:59.522Z,11.55
2017-11-01T17:56:27.065Z,11.43
2017-11-01T17:58:55.260Z,11.34
2017-11-01T18:01:23.272Z,11.32
2017-11-01T18:03:52.525Z,11.38
2017-11-01T18:06:20.934Z,11.50
2017-11-01T18:08:48.521Z,11.60
2017-11-01T18:11:16.238Z,11.56
2017-11-01T18:13:43.790Z,11.54
2017-11-01T18:16:12.271Z,11.52
2017-11-01T18:18:40.619Z,11.52
2017-11-01T18:21:08.195Z,11.64
2017-11-01T18:23:36.892Z,11.46
2017-11-01T18:26:04.470Z,11.41
2017-11-01T18:28:32.122Z,12.14
2017-11-01T18:30:59.723Z,11.84
2017-11-01T18:33:27.343Z,11.77
2017-11-01T18:35:56.542Z,11.69
2017-11-01T18:38:24.387Z,11.65
2017-11-01T18:40:53.076Z,11.59
2017-11-01T18:43:20.848Z,11.51
2017-11-01T18:45:48.427Z,11.21
2017-11-01T18:48:16.050Z,11.58
2017-11-01T18:50:43.883Z,11.49
2017-11-01T18:53:11.817Z,11.37
2017-11-01T18:55:39.479Z,11.44
2017-11-01T18:58:07.051Z,11.41
2017-11-01T19:00:34.676Z,11.32
2017-11-01T19:03:02.258Z,11.19
2017-11-01T19:05:31.250Z,11.18
2017-11-01T19:07:58.875Z,11.22
2017-11-01T19:10:26.492Z,11.09
2017-11-01T19:12:56.797Z,10.85
2017-11-01T19:15:25.886Z,10.96
2017-11-01T19:17:53.443Z,10.94
2017-11-01T19:20:21.302Z,10.85
2017-11-01T19:22:48.854Z,10.87
2017-11-01T19:25:16.400Z,11.01
2017-11-01T19:27:44.255Z,10.99
2017-11-01T19:30:11.834Z,10.82
2017-11-01T19:32:39.409Z,10.66
2017-11-01T19:35:06.968Z,10.41
2017-11-01T19:37:35.429Z,10.50
2017-11-01T19:40:02.981Z,10.55
2017-11-01T19:42:31.279Z,10.71
2017-11-01T19:44:58.855Z,10.62
2017-11-01T19:47:26.429Z,10.73
2017-11-01T19:49:54.075Z,10.72
2017-11-01T19:52:21.688Z,10.51
2017-11-01T19:54:49.244Z,10.55
2017-11-01T19:57:16.842Z,10.33
2017-11-01T19:59:44.502Z,10.31
2017-11-01T20:02:12.019Z,10.39
2017-11-01T20:04:39.694Z,10.39
2017-11-01T20:07:07.230Z,10.41
2017-11-01T20:09:35.885Z,10.30
2017-11-01T20:12:03.492Z,10.43
2017-11-01T20:14:31.104Z,10.18
2017-11-01T20:16:59.146Z,10.31
2017-11-01T20:19:26.749Z,10.16
2017-11-01T20:21:54.552Z,10.31
2017-11-01T20:24:22.468Z,9.97
2017-11-01T20:26:50.222Z,9.93
2017-11-01T20:29:17.953Z,10.06
2017-11-01T20:31:45.636Z,10.13
2017-11-01T20:34:13.204Z,10.25
2017-11-01T20:36:40.765Z,10.33
2017-11-01T20:39:08.744Z,10.27
2017-11-01T20:41:36.412Z,10.15
2017-11-01T20:44:04.937Z,10.17
2017-11-01T20:46:32.643Z,10.25
2017-11-01T20:49:00.268Z,10.30
2017-11-01T20:51:27.917Z,10.33
2017-11-01T20:53:55.600Z,10.28
2017-11-01T20:56:24.149Z,10.24
2017-11-01T20:58:51.708Z,10.11
2017-11-01T21:01:19.314Z,10.10
2017-11-01T21:03:46.987Z,9.89
2017-11-01T21:06:14.659Z,9.92
2017-11-01T21:08:42.878Z,9.89
2017-11-01T21:11:10.680Z,9.89
2017-11-01T21:13:38.343Z,9.92
2017-11-01T21:16:05.880Z,9.93
2017-11-01T21:18:33.553Z,9.65
2017-11-01T21:21:01.267Z,9.68
2017-11-01T21:23:28.901Z,9.71
2017-11-01T21:25:56.503Z,9.82
2017-11-01T21:28:24.814Z,9.85
2017-11-01T21:30:52.410Z,9.70
2017-11-01T21:33:20.136Z,9.58
2017-11-01T21:35:48.312Z,9.64
2017-11-01T21:38:15.839Z,9.69
2017-11-01T21:40:43.482Z,9.71
2017-11-01T21:43:11.121Z,9.67
2017-11-01T21:45:39.747Z,9.73
2017-11-01T21:48:07.371Z,9.72
2017-11-01T21:50:34.974Z,9.47
2017-11-01T21:53:02.685Z,9.45
2017-11-01T21:55:30.278Z,9.35
2017-11-01T21:57:57.838Z,9.38
2017-11-01T22:00:26.416Z,9.34
2017-11-01T22:02:54.001Z,9.51
2017-11-01T22:05:21.694Z,9.48
2017-11-01T22:07:49.300Z,9.46
2017-11-01T22:10:17.875Z,9.52
2017-11-01T22:12:46.010Z,9.40
2017-11-01T22:15:13.586Z,9.38
2017-11-01T22:17:41.149Z,9.52
2017-11-01T22:20:08.732Z,9.54
2017-11-01T22:22:36.293Z,9.53
2017-11-01T22:25:03.927Z,9.58
2017-11-01T22:27:36.960Z,9.45
2017-11-01T22:30:04.890Z,9.29
2017-11-01T22:32:33.685Z,9.42
2017-11-01T22:35:01.301Z,9.51
2017-11-01T22:37:30.233Z,9.41
2017-11-01T22:39:57.879Z,9.33
2017-11-01T22:42:25.489Z,9.50
2017-11-01T22:44:53.368Z,9.38
2017-11-01T22:47:21.380Z,9.52
2017-11-01T22:49:49.446Z,9.54
2017-11-01T22:52:17.137Z,9.53
2017-11-01T22:54:45.818Z,9.53
2017-11-01T22:57:15.494Z,9.55
2017-11-01T22:59:43.172Z,9.51
2017-11-01T23:02:10.716Z,9.26
2017-11-01T23:04:38.467Z,9.34
2017-11-01T23:07:06.165Z,9.48
2017-11-01T23:09:33.962Z,9.54
2017-11-01T23:12:01.704Z,9.45
2017-11-01T23:14:29.394Z,9.51
2017-11-01T23:16:56.969Z,9.55
2017-11-01T23:19:24.644Z,9.44
2017-11-01T23:21:52.433Z,9.45
2017-11-01T23:24:20.098Z,9.43
2017-11-01T23:26:47.677Z,9.43
2017-11-01T23:29:15.689Z,9.45
2017-11-01T23:31:43.292Z,9.44
2017-11-01T23:34:10.851Z,9.39
2017-11-01T23:36:38.466Z,9.38
2017-11-01T23:39:08.893Z,9.47
2017-11-01T23:41:36.487Z,9.32
2017-11-01T23:44:05.562Z,9.37
2017-11-01T23:46:33.134Z,9.42
2017-11-01T23:49:00.733Z,9.34
2017-11-01T23:51:28.262Z,9.45
2017-11-01T23:53:55.780Z,9.48
2017-11-01T23:56:23.403Z,9.52
2017-11-01T23:58:50.957Z,9.40
